createdAt,value
2022-12-23T00:01:25.766Z,9.13
2022-12-23T00:03:58.752Z,9.18
2022-12-23T00:06:28.327Z,9.35
2022-12-23T00:08:59.823Z,9.45
2022-12-23T00:11:31.189Z,9.32
2022-12-23T00:14:21.928Z,9.93
2022-12-23T00:16:52.516Z,11.13
2022-12-23T00:19:22.573Z,10.38
2022-12-23T00:21:52.030Z,8.98
2022-12-23T00:24:21.328Z,11.45
2022-12-23T00:26:52.103Z,13.90
2022-12-23T00:29:24.985Z,11.75
2022-12-23T00:31:54.738Z,11.98
2022-12-23T00:34:24.098Z,13.23
2022-12-23T00:36:53.299Z,13.15
2022-12-23T00:39:39.448Z,11.05
2022-12-23T00:42:27.966Z,11.88
2022-12-23T00:45:16.159Z,14.65
2022-12-23T00:48:02.794Z,12.75
2022-12-23T00:50:32.560Z,13.40
2022-12-23T00:53:04.516Z,10.15
2022-12-23T00:55:34.361Z,14.77
2022-12-23T00:58:05.224Z,14.38
2022-12-23T01:00:51.420Z,11.48
2022-12-23T01:03:37.546Z,12.27
2022-12-23T01:06:06.918Z,13.88
2022-12-23T01:08:36.017Z,14.43
2022-12-23T01:11:06.163Z,12.32
2022-12-23T01:13:37.610Z,12.48
2022-12-23T01:16:15.108Z,12.70
2022-12-23T01:18:47.223Z,14.68
2022-12-23T01:21:17.312Z,12.77
2022-12-23T01:23:46.709Z,12.55
2022-12-23T01:26:15.992Z,10.80
2022-12-23T01:28:47.281Z,6.20
2022-12-23T01:31:16.794Z,7.25
2022-12-23T01:33:46.509Z,6.55
2022-12-23T01:36:15.899Z,6.15
2022-12-23T01:38:45.607Z,8.52
2022-12-23T01:41:39.063Z,9.77
2022-12-23T01:44:40.157Z,11.68
2022-12-23T01:47:13.963Z,12.68
2022-12-23T01:49:44.267Z,16.55
2022-12-23T01:52:15.198Z,20.15
2022-12-23T01:54:45.928Z,20.65
2022-12-23T01:57:15.236Z,22.55
2022-12-23T02:00:02.755Z,22.20
2022-12-23T02:02:52.852Z,23.38
2022-12-23T02:05:23.162Z,20.30
2022-12-23T02:08:12.464Z,23.73
2022-12-23T02:10:58.105Z,18.60
2022-12-23T02:13:33.749Z,18.85
2022-12-23T02:16:18.618Z,17.90
2022-12-23T02:19:12.747Z,15.25
2022-12-23T02:22:10.699Z,13.25
2022-12-23T02:25:09.261Z,7.68
2022-12-23T02:27:51.652Z,10.00
2022-12-23T02:30:36.955Z,10.07
2022-12-23T02:33:22.827Z,8.40
2022-12-23T02:36:01.451Z,12.25
2022-12-23T02:38:36.253Z,12.77
2022-12-23T02:41:11.230Z,12.05
2022-12-23T02:43:46.311Z,11.18
2022-12-23T02:46:23.425Z,9.70
2022-12-23T02:48:58.600Z,8.60
2022-12-23T02:51:32.790Z,8.60
2022-12-23T02:54:06.459Z,10.88
2022-12-23T02:56:40.011Z,13.13
2022-12-23T02:59:14.121Z,13.27
2022-12-23T03:01:46.839Z,14.27
2022-12-23T03:04:16.825Z,11.90
2022-12-23T03:06:48.264Z,13.80
2022-12-23T03:09:26.339Z,14.63
2022-12-23T03:12:02.582Z,13.77
2022-12-23T03:14:52.282Z,15.70
2022-12-23T03:17:43.350Z,16.13
2022-12-23T03:20:23.031Z,16.73
2022-12-23T03:23:00.987Z,13.32
2022-12-23T03:25:36.696Z,17.83
2022-12-23T03:28:12.963Z,18.25
2022-12-23T03:30:44.797Z,21.23
2022-12-23T03:33:19.532Z,15.10
2022-12-23T03:35:53.355Z,18.27
2022-12-23T03:38:24.807Z,20.38
2022-12-23T03:40:58.743Z,16.95
2022-12-23T03:43:30.795Z,15.93
2022-12-23T03:46:03.588Z,17.38
2022-12-23T03:48:37.655Z,17.30
2022-12-23T03:51:13.358Z,15.48
2022-12-23T03:53:48.551Z,16.15
2022-12-23T03:56:22.198Z,15.18
2022-12-23T03:58:56.672Z,18.17
2022-12-23T04:01:33.184Z,17.40
2022-12-23T04:04:08.602Z,14.18
2022-12-23T04:06:55.613Z,17.15
2022-12-23T04:09:28.668Z,18.23
2022-12-23T04:11:59.301Z,15.55
2022-12-23T04:14:28.389Z,11.63
2022-12-23T04:16:59.940Z,11.45
2022-12-23T04:19:30.567Z,9.88
2022-12-23T04:22:00.048Z,10.10
2022-12-23T04:24:29.190Z,9.60
2022-12-23T04:26:58.328Z,10.40
2022-12-23T04:29:27.518Z,7.80
2022-12-23T04:31:56.725Z,8.73
2022-12-23T04:34:25.895Z,8.45
2022-12-23T04:36:56.534Z,7.82
2022-12-23T04:39:25.710Z,7.68
2022-12-23T04:41:54.897Z,9.18
2022-12-23T04:44:24.043Z,9.25
2022-12-23T04:46:53.175Z,9.10
2022-12-23T04:49:22.284Z,9.93
2022-12-23T04:51:51.359Z,16.70
2022-12-23T04:54:21.972Z,9.05
2022-12-23T04:56:51.127Z,11.50
2022-12-23T04:59:20.207Z,13.43
2022-12-23T05:01:49.440Z,13.90
2022-12-23T05:04:18.760Z,11.75
2022-12-23T05:06:47.913Z,10.93
2022-12-23T05:09:17.052Z,8.25
2022-12-23T05:11:47.913Z,8.13
2022-12-23T05:14:19.236Z,10.20
2022-12-23T05:16:48.398Z,6.18
2022-12-23T05:19:20.171Z,7.47
2022-12-23T05:21:49.374Z,8.00
2022-12-23T05:24:18.479Z,6.07
2022-12-23T05:26:55.663Z,8.32
2022-12-23T05:29:28.808Z,8.05
2022-12-23T05:31:58.002Z,10.02
2022-12-23T05:34:27.176Z,13.30
2022-12-23T05:36:56.343Z,8.48
2022-12-23T05:39:25.553Z,10.15
2022-12-23T05:41:56.153Z,6.68
2022-12-23T05:44:25.337Z,8.48
2022-12-23T05:46:54.435Z,9.15
2022-12-23T05:49:25.805Z,7.38
2022-12-23T05:51:54.960Z,6.65
2022-12-23T05:54:24.077Z,6.63
2022-12-23T05:56:53.134Z,8.48
2022-12-23T05:59:29.017Z,7.53
2022-12-23T06:02:00.229Z,7.70
2022-12-23T06:04:29.763Z,6.57
2022-12-23T06:06:59.069Z,8.23
2022-12-23T06:09:28.216Z,6.30
2022-12-23T06:11:57.422Z,7.47
2022-12-23T06:14:29.386Z,10.70
2022-12-23T06:16:59.033Z,5.25
2022-12-23T06:19:28.861Z,9.10
2022-12-23T06:21:57.939Z,7.38
2022-12-23T06:24:27.089Z,8.93
2022-12-23T06:26:57.493Z,7.35
2022-12-23T06:29:28.373Z,10.85
2022-12-23T06:31:57.677Z,10.50
2022-12-23T06:34:27.014Z,10.15
2022-12-23T06:36:56.132Z,14.20
2022-12-23T06:39:25.383Z,14.38
2022-12-23T06:41:54.594Z,11.43
2022-12-23T06:44:23.770Z,16.60
2022-12-23T06:46:55.183Z,19.25
2022-12-23T06:49:24.445Z,9.45
2022-12-23T06:51:53.688Z,10.52
2022-12-23T06:54:22.864Z,11.27
2022-12-23T06:56:52.282Z,10.00
2022-12-23T06:59:21.529Z,10.13
2022-12-23T07:01:50.867Z,12.40
2022-12-23T07:04:21.970Z,10.77
2022-12-23T07:06:51.214Z,12.30
2022-12-23T07:09:20.643Z,11.48
2022-12-23T07:11:49.996Z,8.20
2022-12-23T07:14:19.226Z,9.07
2022-12-23T07:16:48.685Z,8.65
2022-12-23T07:19:18.058Z,6.93
2022-12-23T07:21:48.814Z,8.57
2022-12-23T07:24:17.865Z,7.28
2022-12-23T07:26:47.031Z,7.97
2022-12-23T07:29:16.389Z,8.05
2022-12-23T07:31:45.807Z,7.15
2022-12-23T07:34:19.854Z,7.90
2022-12-23T07:36:50.650Z,9.48
2022-12-23T07:39:20.126Z,9.68
2022-12-23T07:41:52.750Z,9.13
2022-12-23T07:44:35.039Z,8.55
2022-12-23T07:47:04.648Z,10.75
2022-12-23T07:49:34.163Z,7.72
2022-12-23T07:52:05.221Z,9.73
2022-12-23T07:54:34.443Z,7.05
2022-12-23T07:57:03.960Z,8.45
2022-12-23T07:59:33.274Z,6.95
2022-12-23T08:02:02.827Z,10.82
2022-12-23T08:04:34.631Z,9.93
2022-12-23T08:07:07.564Z,9.00
2022-12-23T08:09:36.684Z,9.25
2022-12-23T08:12:06.218Z,8.45
2022-12-23T08:14:35.332Z,9.32
2022-12-23T08:17:04.608Z,9.50
2022-12-23T08:19:33.807Z,8.50
2022-12-23T08:22:04.453Z,7.10
2022-12-23T08:24:33.595Z,5.72
2022-12-23T08:27:02.816Z,9.02
2022-12-23T08:29:36.156Z,9.75
2022-12-23T08:32:05.821Z,11.85
2022-12-23T08:34:35.193Z,9.43
2022-12-23T08:37:05.943Z,13.27
2022-12-23T08:39:35.207Z,9.23
2022-12-23T08:42:04.458Z,9.77
2022-12-23T08:44:33.636Z,11.48
2022-12-23T08:47:02.850Z,13.48
2022-12-23T08:49:32.148Z,8.95
2022-12-23T08:52:01.267Z,8.80
2022-12-23T08:54:32.015Z,9.40
2022-12-23T08:57:01.273Z,10.10
2022-12-23T08:59:30.428Z,8.95
2022-12-23T09:02:02.498Z,10.20
2022-12-23T09:04:31.679Z,9.43
2022-12-23T09:07:00.875Z,11.48
2022-12-23T09:09:31.486Z,9.70
2022-12-23T09:12:00.657Z,9.25
2022-12-23T09:14:29.756Z,6.72
2022-12-23T09:16:58.877Z,8.85
2022-12-23T09:19:27.958Z,7.55
2022-12-23T09:21:57.093Z,10.13
